Time;durP1;ratioP1;P1;durP2;ratioP2;P2;SDS_P1;SDS_P2;PMS_P1;PMS_P2;Temp;Humidity;BMP_temperature;BMP_pressure;BME280_temperature;BME280_humidity;BME280_pressure;Samples;Min_cycle;Max_cycle;Signal;HPM_P1;HPM_P2
2023/03/03 00:00:41;;;;;;;4.53;3.55;;;;;;;4.56;100.00;100126.84;6149730;23;20017;-89
2023/03/03 00:03:08;;;;;;;3.40;3.10;;;;;;;4.55;100.00;100117.03;6152234;23;20017;-88
2023/03/03 00:05:34;;;;;;;3.03;2.83;;;;;;;4.22;100.00;100081.75;6174777;23;20012;-88
2023/03/03 00:08:00;;;;;;;4.25;3.78;;;;;;;4.53;100.00;100118.63;6149533;23;20018;-88
2023/03/03 00:10:26;;;;;;;3.13;2.83;;;;;;;4.52;100.00;100126.06;6150425;23;20024;-88
2023/03/03 00:12:51;;;;;;;2.95;1.83;;;;;;;4.46;100.00;100111.16;6150493;23;20053;-88
2023/03/03 00:15:20;;;;;;;1.45;1.35;;;;;;;4.41;100.00;100100.56;6149870;23;20347;-87
2023/03/03 00:17:46;;;;;;;11.80;4.07;;;;;;;4.54;100.00;100126.44;6149624;23;20454;-88
2023/03/03 00:20:37;;;;;;;3.42;3.17;;;;;;;4.49;100.00;100128.81;6152236;23;20001;-87
2023/03/03 00:23:28;;;;;;;1.65;1.55;;;;;;;4.49;100.00;100124.09;6150067;23;20453;-88
2023/03/03 00:25:54;;;;;;;2.88;2.67;;;;;;;4.47;100.00;100112.72;6125117;23;20104;-88
2023/03/03 00:28:23;;;;;;;4.95;2.83;;;;;;;4.50;100.00;100120.19;6151274;23;20009;-87
2023/03/03 00:30:49;;;;;;;2.45;1.92;;;;;;;4.47;100.00;100123.72;6148856;23;20022;-88
2023/03/03 00:33:33;;;;;;;3.55;3.25;;;;;;;4.52;100.00;100114.28;6149953;23;20005;-87
2023/03/03 00:36:09;;;;;;;1.95;1.85;;;;;;;4.42;100.00;100096.63;6149857;23;20013;-88
2023/03/03 00:38:35;;;;;;;4.22;3.83;;;;;;;4.51;100.00;100116.25;6125988;23;20021;-88
2023/03/03 00:41:03;;;;;;;3.13;2.22;;;;;;;4.45;100.00;100106.06;6174115;23;20005;-87
2023/03/03 00:43:34;;;;;;;11.45;4.63;;;;;;;4.48;100.00;100106.06;6125462;23;20028;-88
2023/03/03 00:46:00;;;;;;;4.20;3.90;;;;;;;4.40;100.00;100090.78;6124603;23;20092;-87
2023/03/03 00:48:29;;;;;;;5.93;2.95;;;;;;;4.49;100.00;100113.09;6124938;23;20088;-88
2023/03/03 00:50:56;;;;;;;13.32;4.95;;;;;;;4.49;100.00;100113.09;6125163;23;20023;-87
2023/03/03 00:53:23;;;;;;;4.47;3.63;;;;;;;4.47;100.00;100099.00;6100844;23;20019;-87
2023/03/03 00:55:51;;;;;;;2.90;2.55;;;;;;;4.48;100.00;100105.28;6149777;23;20006;-87
2023/03/03 00:58:17;;;;;;;3.60;3.28;;;;;;;4.46;100.00;100097.41;6125027;23;20501;-88
2023/03/03 01:00:45;;;;;;;0.75;0.73;;;;;;;4.42;100.00;100090.34;6125107;23;20037;-88
2023/03/03 01:03:20;;;;;;;2.95;2.75;;;;;;;4.37;100.00;100072.31;6125119;23;20006;-87
2023/03/03 01:05:47;;;;;;;2.88;2.67;;;;;;;4.47;100.00;100093.50;6125664;23;20020;-88
2023/03/03 01:08:13;;;;;;;2.50;2.22;;;;;;;4.47;100.00;100088.00;6174689;23;20442;-87
2023/03/03 01:10:45;;;;;;;5.82;4.20;;;;;;;4.48;100.00;100086.84;6125295;23;20370;-87
2023/03/03 01:13:11;;;;;;;2.53;2.35;;;;;;;4.46;100.00;100075.44;6149707;23;20014;-88
2023/03/03 01:15:38;;;;;;;5.60;4.40;;;;;;;4.47;100.00;100073.50;6124789;23;20112;-88
2023/03/03 01:18:03;;;;;;;4.40;4.00;;;;;;;4.43;100.00;100065.25;6125529;23;20037;-88
2023/03/03 01:20:29;;;;;;;4.03;2.97;;;;;;;4.43;100.00;100062.50;6124907;23;20014;-87
2023/03/03 01:22:54;;;;;;;2.05;1.95;;;;;;;4.37;100.00;100058.59;6149817;23;20353;-88
2023/03/03 01:25:20;;;;;;;2.28;1.98;;;;;;;4.31;100.00;100051.94;6174611;23;20018;-87
2023/03/03 01:27:46;;;;;;;4.55;4.15;;;;;;;4.41;100.00;100067.59;6173747;23;20009;-88
2023/03/03 01:30:11;;;;;;;2.95;1.77;;;;;;;4.44;100.00;100071.53;6174354;23;20042;-88
2023/03/03 01:32:37;;;;;;;2.47;2.28;;;;;;;4.37;100.00;100060.56;6149515;23;20059;-88
2023/03/03 01:35:03;;;;;;;5.30;4.50;;;;;;;4.32;100.00;100056.25;6149023;23;20032;-88
2023/03/03 01:37:28;;;;;;;3.35;3.05;;;;;;;4.44;100.00;100066.03;6149879;23;20014;-87
2023/03/03 01:39:55;;;;;;;1.13;1.13;;;;;;;4.44;100.00;100066.03;6174309;23;20009;-88
2023/03/03 01:42:21;;;;;;;2.90;2.70;;;;;;;4.45;100.00;100073.88;6149664;23;20013;-88
2023/03/03 01:44:47;;;;;;;3.83;2.53;;;;;;;4.42;100.00;100052.69;6124523;23;20016;-88
2023/03/03 01:47:16;;;;;;;2.08;1.92;;;;;;;4.47;100.00;100062.50;6125186;23;20039;-88
2023/03/03 01:49:59;;;;;;;3.97;3.60;;;;;;;4.45;100.00;100040.91;6124186;23;20029;-88
2023/03/03 01:52:31;;;;;;;4.25;3.83;;;;;;;4.42;100.00;100052.69;6124998;23;20017;-88
2023/03/03 01:55:00;;;;;;;3.42;3.10;;;;;;;4.43;100.00;100058.97;6125245;23;20017;-88
2023/03/03 01:57:31;;;;;;;3.33;2.13;;;;;;;4.37;100.00;100055.84;6149774;23;20013;-88
2023/03/03 01:59:58;;;;;;;2.92;2.58;;;;;;;4.17;100.00;100057.44;6173878;23;20020;-88
2023/03/03 02:02:24;;;;;;;4.20;2.97;;;;;;;4.14;100.00;100053.50;6124852;23;20076;-88
2023/03/03 02:04:50;;;;;;;2.13;2.03;;;;;;;4.10;100.00;100046.47;6124219;23;20023;-88
2023/03/03 02:07:16;;;;;;;2.78;2.35;;;;;;;4.10;100.00;100043.72;6124792;23;20097;-87
2023/03/03 02:09:58;;;;;;;2.08;1.77;;;;;;;4.10;100.00;100040.97;6124732;23;20005;-88
2023/03/03 02:12:33;;;;;;;2.85;2.65;;;;;;;4.14;100.00;100047.25;6149190;23;20013;-89
2023/03/03 02:14:59;;;;;;;3.63;3.25;;;;;;;4.08;100.00;100043.34;6099863;23;20095;-87
2023/03/03 02:17:25;;;;;;;10.80;5.80;;;;;;;4.07;100.00;100039.81;6125363;23;20422;-88
2023/03/03 02:20:02;;;;;;;2.50;2.30;;;;;;;4.02;100.00;100022.94;6149041;23;20014;-88
2023/03/03 02:22:51;;;;;;;1.92;1.83;;;;;;;4.02;100.00;100033.91;6149842;23;20014;-88
2023/03/03 02:25:30;;;;;;;7.13;4.43;;;;;;;4.01;100.00;100021.34;6151826;23;20022;-88
2023/03/03 02:27:56;;;;;;;2.50;2.40;;;;;;;4.09;100.00;100045.66;6099765;23;20017;-88
2023/03/03 02:30:23;;;;;;;2.75;2.55;;;;;;;4.13;100.00;100040.97;6149018;23;20140;-88
2023/03/03 02:32:48;;;;;;;3.10;2.35;;;;;;;4.12;100.00;100033.13;6126149;23;20024;-88
2023/03/03 02:35:31;;;;;;;2.80;2.60;;;;;;;4.21;100.00;100033.50;6151055;23;20426;-87
2023/03/03 02:38:24;;;;;;;3.05;2.80;;;;;;;4.23;100.00;100031.94;6153061;23;20013;-88
2023/03/03 02:41:25;;;;;;;2.95;2.28;;;;;;;4.18;100.00;100026.84;6150373;23;20088;-87
2023/03/03 02:44:01;;;;;;;2.95;2.78;;;;;;;4.23;100.00;100022.91;6102499;23;20029;-88
2023/03/03 02:46:32;;;;;;;3.45;3.15;;;;;;;4.22;100.00;100021.34;6150414;23;20010;-88
2023/03/03 02:48:59;;;;;;;2.60;2.00;;;;;;;4.17;100.00;100010.75;6151105;23;20327;-88
2023/03/03 02:51:25;;;;;;;2.85;2.50;;;;;;;4.14;100.00;99997.81;6151163;23;20024;-87
2023/03/03 02:53:50;;;;;;;1.73;1.63;;;;;;;4.25;100.00;100012.31;6126097;23;20438;-88
2023/03/03 02:56:16;;;;;;;4.55;4.15;;;;;;;4.28;100.00;100003.31;6150827;23;20334;-88
2023/03/03 02:58:42;;;;;;;3.10;2.90;;;;;;;4.29;100.00;100002.09;6152159;23;20079;-88
2023/03/03 03:01:08;;;;;;;2.13;1.95;;;;;;;4.19;100.00;99978.22;6150761;23;20339;-88
2023/03/03 03:03:34;;;;;;;11.93;3.85;;;;;;;4.20;100.00;99974.28;6126145;23;20446;-89
2023/03/03 03:06:02;;;;;;;3.85;2.60;;;;;;;4.24;100.00;99977.81;6175298;23;20013;-87
2023/03/03 03:08:27;;;;;;;5.03;3.55;;;;;;;4.39;100.00;100001.31;6151196;23;20025;-88
2023/03/03 03:10:55;;;;;;;3.00;1.67;;;;;;;4.38;100.00;99991.50;6125477;23;20033;-88
2023/03/03 03:13:23;;;;;;;3.83;3.13;;;;;;;4.40;100.00;99982.88;6150637;23;20044;-87
2023/03/03 03:15:49;;;;;;;7.22;2.97;;;;;;;4.40;100.00;99994.66;6101319;23;20008;-88
2023/03/03 03:18:15;;;;;;;3.60;3.35;;;;;;;4.40;100.00;99991.13;6150469;23;20006;-88
2023/03/03 03:20:42;;;;;;;3.70;3.40;;;;;;;4.33;100.00;99989.16;6126499;23;20005;-88
2023/03/03 03:23:09;;;;;;;2.67;2.47;;;;;;;4.29;100.00;99982.88;6126361;23;20454;-88
2023/03/03 03:25:41;;;;;;;1.83;1.73;;;;;;;4.18;100.00;99966.44;6101459;23;20108;-87
2023/03/03 03:28:07;;;;;;;3.15;2.28;;;;;;;4.23;100.00;99984.47;6150958;23;20021;-88
2023/03/03 03:30:35;;;;;;;2.67;2.47;;;;;;;4.22;100.00;99977.41;6125421;23;20092;-87
2023/03/03 03:33:01;;;;;;;1.67;1.58;;;;;;;4.20;100.00;99974.28;6126006;23;20025;-88
2023/03/03 03:35:27;;;;;;;1.02;0.98;;;;;;;4.27;100.00;99981.72;6150742;23;20018;-87
2023/03/03 03:37:53;;;;;;;1.77;1.67;;;;;;;4.33;100.00;99980.91;6126251;23;20005;-88
2023/03/03 03:40:20;;;;;;;6.72;3.25;;;;;;;4.23;100.00;99970.75;6150908;23;20033;-88
2023/03/03 03:42:45;;;;;;;5.70;2.60;;;;;;;4.28;100.00;99975.06;6125008;23;20017;-87
2023/03/03 03:45:14;;;;;;;1.92;1.70;;;;;;;4.21;100.00;99968.38;6147500;23;20017;-88
2023/03/03 03:47:42;;;;;;;2.60;1.33;;;;;;;4.31;100.00;99991.53;6150061;23;20016;-88
2023/03/03 03:50:09;;;;;;;3.22;2.70;;;;;;;4.31;100.00;99988.00;6150428;23;20049;-87
2023/03/03 03:52:35;;;;;;;4.68;3.55;;;;;;;4.31;100.00;99990.75;6125899;23;20076;-87
2023/03/03 03:55:02;;;;;;;4.40;3.05;;;;;;;4.27;100.00;99987.22;6150201;23;20021;-88
2023/03/03 03:57:28;;;;;;;3.05;2.80;;;;;;;4.27;100.00;99984.47;6125772;23;20107;-87
2023/03/03 03:59:53;;;;;;;6.22;3.53;;;;;;;4.32;100.00;99992.31;6149799;23;20747;-88
2023/03/03 04:02:19;;;;;;;1.80;1.60;;;;;;;4.33;100.00;99989.16;6125636;23;20061;-87
2023/03/03 04:04:45;;;;;;;5.95;3.75;;;;;;;4.30;100.00;99983.66;6174168;23;20097;-88
2023/03/03 04:07:11;;;;;;;0.82;0.82;;;;;;;4.11;100.00;99979.41;6101803;23;20017;-88
2023/03/03 04:09:37;;;;;;;1.85;1.75;;;;;;;4.01;100.00;99989.22;6101641;23;20112;-88
2023/03/03 04:12:03;;;;;;;4.53;4.13;;;;;;;3.94;100.00;99978.25;6125509;23;20022;-87
2023/03/03 04:14:30;;;;;;;6.22;3.53;;;;;;;4.00;100.00;99981.38;6126021;23;20156;-87
2023/03/03 04:16:56;;;;;;;2.85;2.22;;;;;;;3.93;100.00;99984.91;6124579;23;20056;-88
2023/03/03 04:19:22;;;;;;;3.38;2.70;;;;;;;3.91;100.00;99978.25;6151944;23;20002;-87
2023/03/03 04:21:50;;;;;;;2.78;2.60;;;;;;;4.03;100.00;99994.31;6174258;23;20017;-88
2023/03/03 04:24:15;;;;;;;5.53;2.75;;;;;;;3.98;100.00;99986.47;6150201;23;20057;-88
2023/03/03 04:26:41;;;;;;;1.48;1.40;;;;;;;4.00;100.00;99982.19;6100637;23;20128;-88
2023/03/03 04:29:09;;;;;;;2.53;2.33;;;;;;;3.99;100.00;99985.31;6101912;23;20013;-88
2023/03/03 04:31:34;;;;;;;3.92;2.85;;;;;;;3.98;100.00;99984.50;6100877;23;20018;-87
2023/03/03 04:34:02;;;;;;;4.20;3.53;;;;;;;4.02;100.00;99990.00;6124158;23;20044;-88
2023/03/03 04:36:28;;;;;;;3.22;2.33;;;;;;;3.81;100.00;99979.81;6101673;23;20025;-87
2023/03/03 04:38:54;;;;;;;1.30;1.25;;;;;;;3.88;100.00;99984.53;6124598;23;20449;-88
2023/03/03 04:41:20;;;;;;;4.00;3.60;;;;;;;3.88;100.00;99990.81;6125668;23;20009;-87
2023/03/03 04:43:45;;;;;;;7.38;2.40;;;;;;;3.99;100.00;100001.78;6149600;23;20487;-88
2023/03/03 04:46:12;;;;;;;3.00;2.72;;;;;;;3.99;100.00;99993.53;6101245;23;20062;-88
2023/03/03 04:48:38;;;;;;;2.15;2.05;;;;;;;3.97;100.00;99982.16;6173903;23;20013;-87
2023/03/03 04:51:04;;;;;;;0.90;0.90;;;;;;;4.02;100.00;99995.47;6125622;23;20325;-88
2023/03/03 04:53:31;;;;;;;2.38;1.70;;;;;;;3.98;100.00;99991.97;6125880;23;20389;-88
2023/03/03 04:55:57;;;;;;;1.52;1.42;;;;;;;3.96;100.00;99995.13;6149323;23;20096;-88
2023/03/03 04:58:22;;;;;;;3.72;3.38;;;;;;;3.85;100.00;99986.09;6125067;23;20013;-88
2023/03/03 05:00:54;;;;;;;2.63;2.42;;;;;;;3.92;100.00;100001.78;6148738;23;20349;-87
2023/03/03 05:03:20;;;;;;;2.88;2.50;;;;;;;3.61;100.00;99965.72;6149996;23;20045;-88
2023/03/03 05:05:46;;;;;;;6.38;4.47;;;;;;;3.84;100.00;100008.44;6125547;23;20015;-88
2023/03/03 05:08:12;;;;;;;1.65;0.95;;;;;;;3.83;100.00;100007.66;6124054;23;20068;-88
2023/03/03 05:10:38;;;;;;;2.53;1.98;;;;;;;3.85;100.00;100007.25;6122961;23;20018;-87
2023/03/03 05:13:04;;;;;;;1.55;1.45;;;;;;;3.79;100.00;100004.13;6123052;23;20041;-88
2023/03/03 05:15:30;;;;;;;5.75;4.20;;;;;;;3.66;100.00;100000.19;6147645;23;20052;-88
2023/03/03 05:17:56;;;;;;;2.75;2.55;;;;;;;3.74;100.00;100010.78;6147749;23;20010;-88
2023/03/03 05:20:22;;;;;;;4.30;3.35;;;;;;;3.80;100.00;100021.38;6122651;23;20048;-87
2023/03/03 05:22:48;;;;;;;2.20;2.00;;;;;;;3.78;100.00;100012.75;6147400;23;20144;-87
2023/03/03 05:25:13;;;;;;;2.22;2.13;;;;;;;3.75;100.00;100006.09;6147433;23;20470;-88
2023/03/03 05:27:39;;;;;;;1.75;1.65;;;;;;;3.86;100.00;100017.84;6147802;23;20477;-87
2023/03/03 05:30:09;;;;;;;1.88;1.75;;;;;;;3.87;100.00;100022.16;6122244;23;20040;-87
2023/03/03 05:32:35;;;;;;;2.72;2.53;;;;;;;3.86;100.00;100011.56;6123217;23;20350;-89
2023/03/03 05:35:01;;;;;;;1.58;1.52;;;;;;;3.88;100.00;100017.47;6147189;23;20021;-88
2023/03/03 05:37:26;;;;;;;2.88;2.03;;;;;;;3.90;100.00;100015.09;6123450;23;20370;-89
2023/03/03 05:39:52;;;;;;;1.20;1.20;;;;;;;3.79;100.00;99987.66;6148219;23;20430;-88
2023/03/03 05:42:18;;;;;;;1.17;1.17;;;;;;;3.91;100.00;99989.22;6148294;23;20014;-88
2023/03/03 05:44:43;;;;;;;3.33;3.13;;;;;;;3.94;100.00;100015.88;6147368;23;20020;-88
2023/03/03 05:47:09;;;;;;;4.68;4.25;;;;;;;3.92;100.00;100012.75;6120444;23;20109;-87
2023/03/03 05:49:34;;;;;;;7.55;2.97;;;;;;;3.95;100.00;100023.72;6121418;23;20434;-87
2023/03/03 05:52:00;;;;;;;2.85;2.60;;;;;;;3.96;100.00;100030.00;6119936;23;20119;-86
2023/03/03 05:54:25;;;;;;;3.70;2.00;;;;;;;3.89;100.00;100024.50;6171079;23;20327;-86
2023/03/03 05:56:51;;;;;;;3.10;2.83;;;;;;;3.80;100.00;100011.19;6170204;23;20104;-87
2023/03/03 05:59:17;;;;;;;3.78;2.60;;;;;;;3.93;100.00;100025.28;6122040;23;20014;-89
2023/03/03 06:01:43;;;;;;;2.55;2.38;;;;;;;3.91;100.00;100019.41;6147034;23;20005;-87
2023/03/03 06:04:08;;;;;;;11.07;2.75;;;;;;;3.94;100.00;100021.38;6146343;23;20061;-87
2023/03/03 06:06:34;;;;;;;3.22;2.88;;;;;;;3.98;100.00;100033.91;6145930;23;20013;-87
2023/03/03 06:09:00;;;;;;;3.58;3.28;;;;;;;4.03;100.00;100032.75;6148781;23;20076;-87
2023/03/03 06:11:25;;;;;;;6.22;5.45;;;;;;;4.01;100.00;100040.56;6147754;23;20354;-87
2023/03/03 06:13:51;;;;;;;3.47;3.17;;;;;;;4.05;100.00;100038.59;6147837;23;20022;-86
2023/03/03 06:16:16;;;;;;;2.88;2.65;;;;;;;3.98;100.00;100027.63;6146934;23;20002;-87
2023/03/03 06:18:42;;;;;;;1.98;1.83;;;;;;;4.05;100.00;100044.09;6149827;23;20020;-88
2023/03/03 06:21:08;;;;;;;2.10;2.00;;;;;;;4.03;100.00;100038.22;6150264;23;20338;-89
2023/03/03 06:23:33;;;;;;;1.75;1.40;;;;;;;4.11;100.00;100053.53;6100920;23;20073;-89
2023/03/03 06:25:59;;;;;;;4.15;3.75;;;;;;;4.06;100.00;100037.44;6125854;23;20017;-89
2023/03/03 06:28:25;;;;;;;3.10;2.85;;;;;;;4.05;100.00;100039.41;6122748;23;20017;-88
2023/03/03 06:30:54;;;;;;;6.22;3.63;;;;;;;4.15;100.00;100057.84;6123498;23;20442;-88
2023/03/03 06:33:20;;;;;;;2.00;1.90;;;;;;;3.84;100.00;100011.19;6123503;23;20088;-89
2023/03/03 06:35:53;;;;;;;3.65;3.35;;;;;;;4.22;100.00;100070.75;6124558;23;20037;-89
2023/03/03 06:38:19;;;;;;;2.15;1.27;;;;;;;3.90;100.00;100015.09;6124567;23;20014;-89
2023/03/03 06:40:45;;;;;;;4.15;3.65;;;;;;;4.10;100.00;100063.72;6173588;23;20548;-89
2023/03/03 06:43:11;;;;;;;4.18;3.90;;;;;;;3.99;100.00;100051.97;6149128;23;20569;-89
2023/03/03 06:45:37;;;;;;;8.10;5.65;;;;;;;3.93;100.00;100053.50;6124220;23;20016;-89
2023/03/03 06:48:03;;;;;;;4.28;3.90;;;;;;;4.10;100.00;100068.41;6125054;23;20505;-89
2023/03/03 06:50:28;;;;;;;7.75;5.15;;;;;;;3.93;100.00;100037.03;6124440;23;20020;-88
2023/03/03 06:53:05;;;;;;;6.65;2.17;;;;;;;4.27;100.00;100080.56;6099864;23;20013;-89
2023/03/03 06:55:31;;;;;;;5.32;4.45;;;;;;;4.20;100.00;100059.41;6098299;23;20013;-88
2023/03/03 06:57:58;;;;;;;2.10;2.00;;;;;;;4.20;100.00;100062.16;6125478;23;20185;-87
2023/03/03 07:00:26;;;;;;;2.08;1.95;;;;;;;4.20;100.00;100062.16;6124510;23;20005;-88
2023/03/03 07:03:13;;;;;;;2.53;2.38;;;;;;;4.30;100.00;100074.28;6151053;23;20010;-88
2023/03/03 07:05:38;;;;;;;3.33;3.00;;;;;;;4.20;100.00;100064.91;6125106;23;20018;-88
2023/03/03 07:08:12;;;;;;;5.78;3.17;;;;;;;4.31;100.00;100087.63;6123707;23;20048;-88
2023/03/03 07:10:38;;;;;;;1.38;1.30;;;;;;;4.39;100.00;100091.94;6125043;23;20040;-88
2023/03/03 07:13:26;;;;;;;5.18;4.25;;;;;;;4.48;100.00;100089.59;6125971;23;20009;-90
2023/03/03 07:15:54;;;;;;;1.38;1.27;;;;;;;4.42;100.00;100096.63;6100848;23;20029;-90
2023/03/03 07:18:51;;;;;;;5.47;4.28;;;;;;;4.42;100.00;100096.63;6125516;23;20449;-89
2023/03/03 07:21:20;;;;;;;0.82;0.82;;;;;;;4.49;100.00;100085.63;6150679;23;20088;-89
2023/03/03 07:23:48;;;;;;;2.13;1.90;;;;;;;4.42;100.00;100084.88;6150566;23;20011;-89
2023/03/03 07:26:17;;;;;;;2.72;2.53;;;;;;;4.60;100.00;100102.91;6175987;23;20021;-89
2023/03/03 07:29:01;;;;;;;1.70;1.60;;;;;;;4.61;100.00;100098.19;6126220;23;20075;-89
2023/03/03 07:31:35;;;;;;;6.57;2.40;;;;;;;4.59;100.00;100112.31;6175053;23;20021;-90
2023/03/03 07:34:04;;;;;;;3.35;3.05;;;;;;;4.47;100.00;100087.22;6126004;23;20078;-90
2023/03/03 07:36:34;;;;;;;1.67;1.60;;;;;;;4.49;100.00;100095.88;6126031;23;20020;-90
2023/03/03 07:39:04;;;;;;;2.13;2.03;;;;;;;4.47;100.00;100093.50;6175245;23;20018;-90
2023/03/03 07:41:31;;;;;;;5.68;4.88;;;;;;;4.20;100.00;100067.66;6126800;23;20013;-89
2023/03/03 07:44:05;;;;;;;3.75;3.20;;;;;;;4.53;100.00;100102.91;6101798;23;20021;-90
2023/03/03 07:46:40;;;;;;;4.82;3.75;;;;;;;4.56;100.00;100096.63;6100828;23;20487;-90
2023/03/03 07:49:31;;;;;;;4.63;3.88;;;;;;;4.65;100.00;100105.22;6150933;23;20017;-89
2023/03/03 07:51:59;;;;;;;1.83;1.73;;;;;;;4.67;100.00;100105.63;6150456;23;20017;-90
2023/03/03 07:54:39;;;;;;;6.00;4.38;;;;;;;4.75;100.00;100109.16;6126075;23;20017;-90
2023/03/03 07:57:18;;;;;;;1.73;1.63;;;;;;;4.87;100.00;100105.19;6101753;23;20346;-90
2023/03/03 07:59:54;;;;;;;2.90;2.47;;;;;;;4.89;100.00;100102.84;6124745;23;20068;-89
2023/03/03 08:02:26;;;;;;;1.88;1.77;;;;;;;4.81;100.00;100106.78;6101802;23;20360;-90
2023/03/03 08:04:53;;;;;;;1.42;1.42;;;;;;;4.68;100.00;100077.00;6150112;23;20014;-91
2023/03/03 08:07:21;;;;;;;3.90;3.60;;;;;;;4.93;100.00;100103.63;6123953;23;20021;-90
2023/03/03 08:09:57;;;;;;;1.70;1.63;;;;;;;4.89;100.00;100080.84;6125673;23;20009;-90
2023/03/03 08:12:38;;;;;;;1.67;1.55;;;;;;;5.00;100.00;100081.59;6101878;23;20016;-89
2023/03/03 08:15:12;;;;;;;2.70;2.50;;;;;;;5.20;100.00;100090.16;6125147;23;20036;-90
2023/03/03 08:17:38;;;;;;;6.07;2.90;;;;;;;5.21;100.00;100097.25;6150162;23;20354;-89
2023/03/03 08:20:43;;;;;;;1.75;1.65;;;;;;;5.19;100.00;100097.63;6150192;23;20017;-89
2023/03/03 08:23:10;;;;;;;2.78;2.53;;;;;;;5.21;100.00;100087.03;6150515;23;20059;-89
2023/03/03 08:25:36;;;;;;;1.38;1.27;;;;;;;5.36;100.00;100099.53;6101121;23;20446;-89
2023/03/03 08:28:01;;;;;;;3.47;3.10;;;;;;;5.41;100.00;100101.88;6125839;23;20047;-89
2023/03/03 08:30:27;;;;;;;3.65;3.33;;;;;;;5.42;100.00;100081.41;6100767;23;20021;-89
2023/03/03 08:32:52;;;;;;;3.95;2.97;;;;;;;5.44;100.00;100101.06;6101302;23;20136;-90
2023/03/03 08:35:18;;;;;;;2.83;2.60;;;;;;;5.37;100.00;100106.59;6100918;23;20097;-90
2023/03/03 08:37:44;;;;;;;4.20;3.75;;;;;;;5.39;100.00;100104.22;6100952;23;20017;-89
2023/03/03 08:40:10;;;;;;;5.93;2.45;;;;;;;5.37;100.00;100106.59;6125424;23;20108;-90
2023/03/03 08:42:35;;;;;;;6.65;5.15;;;;;;;5.40;100.00;100103.03;6101604;23;20012;-90
2023/03/03 08:45:01;;;;;;;2.80;1.88;;;;;;;5.48;100.00;100103.78;6149648;23;20017;-90
2023/03/03 08:47:26;;;;;;;4.78;4.22;;;;;;;5.23;100.00;100087.41;6149297;23;20010;-89
2023/03/03 08:49:53;;;;;;;3.65;2.72;;;;;;;5.48;100.00;100110.06;6124727;23;20029;-89
2023/03/03 08:52:19;;;;;;;2.38;2.15;;;;;;;5.39;100.00;100086.91;6101426;23;20417;-90
2023/03/03 08:54:44;;;;;;;5.82;2.95;;;;;;;5.48;100.00;100093.56;6100654;23;20013;-90
2023/03/03 08:57:10;;;;;;;1.33;1.25;;;;;;;5.53;100.00;100095.91;6125245;23;20018;-88
2023/03/03 08:59:37;;;;;;;1.90;1.80;;;;;;;5.39;100.00;100071.22;6149684;23;20017;-90
2023/03/03 09:02:06;;;;;;;5.80;4.20;;;;;;;5.48;100.00;100096.31;6101302;23;20013;-89
2023/03/03 09:04:32;;;;;;;3.70;2.65;;;;;;;5.60;100.00;100112.38;6125322;23;20323;-89
2023/03/03 09:06:57;;;;;;;2.72;2.30;;;;;;;5.54;100.00;100089.19;6148747;23;20076;-89
2023/03/03 09:09:23;;;;;;;1.70;1.60;;;;;;;5.76;100.00;100108.34;6100895;23;20018;-90
2023/03/03 09:11:49;;;;;;;6.10;5.40;;;;;;;5.79;100.00;100099.28;6125293;23;20112;-89
2023/03/03 09:14:16;;;;;;;2.78;2.58;;;;;;;5.96;100.00;100118.47;6150020;23;20009;-89
2023/03/03 09:16:49;;;;;;;13.57;3.75;;;;;;;5.97;100.00;100111.78;6098475;23;20017;-90
2023/03/03 09:19:18;;;;;;;2.92;2.72;;;;;;;6.12;100.00;100106.94;6149061;23;20033;-89
2023/03/03 09:21:44;;;;;;;4.00;3.60;;;;;;;6.13;100.00;100119.53;6149880;23;20009;-89
2023/03/03 09:24:27;;;;;;;3.78;3.15;;;;;;;6.12;100.00;100123.47;6125449;23;20056;-90
2023/03/03 09:26:53;;;;;;;1.88;1.77;;;;;;;6.09;100.00;100130.56;6125352;23;20044;-89
2023/03/03 09:29:30;;;;;;;3.35;3.10;;;;;;;6.06;100.00;100111.34;6099930;23;20005;-89
2023/03/03 09:32:37;;;;;;;3.72;3.08;;;;;;;6.10;100.00;100125.84;6124579;23;20044;-89
2023/03/03 09:35:36;;;;;;;2.58;2.38;;;;;;;6.18;100.00;100132.09;6099556;23;20053;-89
2023/03/03 09:38:32;;;;;;;6.15;3.58;;;;;;;6.28;100.00;100126.50;6094475;23;20049;-89
2023/03/03 09:41:28;;;;;;;4.05;2.25;;;;;;;6.36;100.00;100133.50;6107070;23;20085;-89
2023/03/03 09:44:17;;;;;;;3.78;2.95;;;;;;;6.35;100.00;100123.66;6151611;23;20025;-89
2023/03/03 09:47:00;;;;;;;5.88;5.25;;;;;;;6.44;100.00;100123.22;6127768;23;20398;-90
2023/03/03 09:49:56;;;;;;;3.13;2.70;;;;;;;6.44;100.00;100124.00;6152290;23;20472;-90
2023/03/03 09:52:47;;;;;;;2.35;2.15;;;;;;;6.53;100.00;100107.78;6177646;23;20105;-89
2023/03/03 09:55:31;;;;;;;2.20;1.98;;;;;;;6.70;100.00;100113.53;6152095;23;20017;-90
2023/03/03 09:58:23;;;;;;;;;;;;;;;7.00;100.00;100103.34;6152000;23;20413;-89
2023/03/03 10:00:58;;;;;;;1.63;1.52;;;;;;;7.24;100.00;100120.03;6117199;23;19908;-90
2023/03/03 10:04:00;;;;;;;4.68;3.90;;;;;;;7.43;100.00;100111.91;6151373;23;20060;-90
2023/03/03 10:06:39;;;;;;;1.52;1.42;;;;;;;7.70;100.00;100117.47;6153197;23;20393;-90
2023/03/03 10:09:27;;;;;;;1.75;1.60;;;;;;;7.74;100.00;100114.66;6151583;23;20037;-89
2023/03/03 10:12:05;;;;;;;3.13;2.92;;;;;;;7.72;100.00;100106.00;6126301;23;20105;-90
2023/03/03 10:14:59;;;;;;;3.08;2.75;;;;;;;7.77;100.00;100113.81;6151626;23;20339;-89
2023/03/03 10:17:27;;;;;;;1.95;1.85;;;;;;;7.58;100.00;100111.72;6151260;23;20013;-89
2023/03/03 10:20:08;;;;;;;2.80;1.65;;;;;;;7.66;100.00;100118.69;6150970;23;20060;-89
2023/03/03 10:22:47;;;;;;;5.55;2.85;;;;;;;7.92;100.00;100115.19;6103143;23;20018;-89
2023/03/03 10:25:33;;;;;;;2.65;2.45;;;;;;;8.01;100.00;100112.66;6102379;23;20096;-90
2023/03/03 10:28:28;;;;;;;1.92;1.83;;;;;;;7.96;100.00;100115.91;6135566;23;20357;-89
2023/03/03 10:31:18;;;;;;;1.95;1.85;;;;;;;8.04;100.00;100100.81;6151179;23;20021;-90
2023/03/03 10:34:06;;;;;;;3.08;2.78;;;;;;;8.50;100.00;100099.28;6151052;23;20020;-89
2023/03/03 10:36:34;;;;;;;8.93;5.45;;;;;;;8.78;100.00;100104.31;6151174;23;20017;-89
2023/03/03 10:39:11;;;;;;;2.00;1.90;;;;;;;8.97;100.00;100100.81;6102336;23;20366;-89
2023/03/03 10:41:59;;;;;;;3.65;3.35;;;;;;;9.07;100.00;100102.56;6151454;23;20013;-90
2023/03/03 10:44:34;;;;;;;1.40;1.30;;;;;;;9.01;100.00;100098.75;6126618;23;20021;-90
2023/03/03 10:47:23;;;;;;;1.45;1.35;;;;;;;9.23;100.00;100102.63;6101333;23;20021;-90
2023/03/03 10:49:51;;;;;;;4.97;3.20;;;;;;;9.29;100.00;100100.16;6150913;23;20025;-90
2023/03/03 10:52:27;;;;;;;1.25;1.20;;;;;;;9.30;100.00;100091.41;6151163;23;20017;-90
2023/03/03 10:55:11;;;;;;;4.03;2.88;;;;;;;9.57;100.00;100093.25;6150818;23;20045;-90
2023/03/03 10:58:01;;;;;;;4.28;3.88;;;;;;;9.60;100.00;100097.91;6151250;23;20013;-89
2023/03/03 11:00:54;;;;;;;1.73;1.55;;;;;;;9.57;100.00;100099.56;6150591;23;20013;-89
2023/03/03 11:03:36;;;;;;;1.55;1.45;;;;;;;9.23;100.00;100085.25;6100856;23;20022;-89
2023/03/03 11:06:20;;;;;;;1.35;1.30;;;;;;;9.34;100.00;100103.19;6151632;23;20009;-89
2023/03/03 11:08:55;;;;;;;3.90;2.72;;;;;;;9.27;100.00;100097.81;6102060;23;20084;-90
2023/03/03 11:11:27;;;;;;;2.25;2.15;;;;;;;9.24;100.00;100100.66;6101599;23;20017;-90
2023/03/03 11:14:00;;;;;;;4.28;3.40;;;;;;;8.94;100.00;100093.31;6150314;23;20009;-90
2023/03/03 11:16:31;;;;;;;5.85;2.10;;;;;;;8.97;100.00;100100.00;6150786;23;20017;-89
2023/03/03 11:19:12;;;;;;;1.90;1.80;;;;;;;8.97;100.00;100092.50;6150363;23;20043;-89
2023/03/03 11:21:47;;;;;;;3.33;3.03;;;;;;;8.99;100.00;100078.22;6150417;23;20109;-90
2023/03/03 11:24:25;;;;;;;4.00;3.05;;;;;;;9.07;100.00;100085.97;6101865;23;20048;-89
2023/03/03 11:27:04;;;;;;;2.53;2.33;;;;;;;9.14;100.00;100090.59;6150580;23;20454;-89
2023/03/03 11:29:45;;;;;;;2.10;2.00;;;;;;;9.14;100.00;100085.06;6125780;23;20017;-89
2023/03/03 11:32:26;;;;;;;3.13;2.83;;;;;;;9.19;100.00;100077.03;6126900;23;20014;-89
2023/03/03 11:34:51;;;;;;;4.65;3.28;;;;;;;9.61;100.00;100077.31;6149986;23;20026;-89
2023/03/03 11:37:36;;;;;;;2.50;2.28;;;;;;;9.89;100.00;100076.69;6151541;23;20009;-89
2023/03/03 11:40:11;;;;;;;3.75;2.42;;;;;;;10.06;100.00;100061.63;6150504;23;20009;-90
2023/03/03 11:42:57;;;;;;;4.13;2.03;;;;;;;10.07;100.00;100074.25;6101739;23;20017;-90
2023/03/03 11:45:33;;;;;;;5.20;3.38;;;;;;;9.96;100.00;100082.06;6125865;23;20401;-90